Hovedside
METAR-TAF:

METAR-TAF

Lufthavner :

Chengdu, Kina

Chengdu Shuangliu internasjonale lufthavn

breddegrad: 30-40N, lengdegrad: 104-01E, høyde over havet: 508 m

Gjeldene værobservasjon

Denne rapporten ble laget for 33 minutter siden, klokken 19:00 UTC
Vind 2 kt fra skiftende retning
Temperatur 10°C
Luftfuktighet 62%
Trykk 1021 hPa
Sikt: 5000 m
dis

METAR: ZUUU 191900Z VRB01MPS 5000 HZ NSC 10/03 Q1021 NOSIG

Tid: 03:33 (19:33 UTC)

Varsel

Denne rapporten ble laget for 5 timer og 18 minutter siden, klokken 14:15 UTC
Varsel gyldig fra 19. klokken 18 UTC til 20. klokken 18 UTC
Vind 6 kt fra Nord-nordøst
Sikt: 5000 m
Spredte skyer i en høyde av 5000 ft
dis
Blir
fra 19. klokken 22 UTC til 19. klokken 23 UTC
Sikt: 2300 m
Blir
fra 20. klokken 01 UTC til 20. klokken 02 UTC
Sikt: 5000 m

TAF: ZUUU 191415Z 1918/2018 02003MPS 5000 BR SCT050 TX12/2007Z TN04/1923Z BECMG 1922/1923 2300 BECMG 2001/2002 5000

Værobservasjoner og værvarsel for over 4000 flyplasser (METAR- og TAF-rapporter).

Tilgjengelige stasjoner er representert av de røde og gule prikkene på kartet.

Hold musepekeren over prikken for å se navnet på stasjonen.

Klikk så for å se værobservasjoner og -varsler.

For å forandre kartet kan du klikke på den grønne knappen med svart kryss for å zoome inn, på den grønne knappen med strek for å zoome ut, eller på de grønne pilene for å se tilstøtende kart.


METAR-TAF: